createdAt,value
2022-11-11T00:00:17.721Z,2.80
2022-11-11T00:03:03.857Z,4.60
2022-11-11T00:05:48.959Z,3.83
2022-11-11T00:08:35.428Z,4.80
2022-11-11T00:11:21.091Z,3.33
2022-11-11T00:14:06.625Z,3.30
2022-11-11T00:17:10.638Z,5.80
2022-11-11T00:20:14.665Z,2.67
2022-11-11T00:23:18.903Z,1.87
2022-11-11T00:26:32.578Z,4.90
2022-11-11T00:29:11.032Z,4.13
2022-11-11T00:32:15.059Z,11.10
2022-11-11T00:35:19.109Z,5.47
2022-11-11T00:41:22.463Z,5.70
2022-11-11T00:44:08.006Z,4.40
2022-11-11T00:47:11.808Z,6.23
2022-11-11T00:50:15.984Z,24.40
2022-11-11T00:53:02.570Z,5.83
2022-11-11T00:55:48.689Z,13.83
2022-11-11T00:58:33.892Z,10.53
2022-11-11T01:01:19.480Z,7.33
2022-11-11T01:04:06.111Z,9.33
2022-11-11T01:06:51.384Z,3.30
2022-11-11T01:09:36.702Z,9.57
2022-11-11T01:12:22.532Z,3.60
2022-11-11T01:15:09.064Z,3.90
2022-11-11T01:17:54.811Z,4.40
2022-11-11T01:20:41.790Z,5.57
2022-11-11T01:23:28.326Z,5.37
2022-11-11T01:26:26.149Z,5.03
2022-11-11T01:29:13.279Z,6.40
2022-11-11T01:31:58.779Z,10.47
2022-11-11T01:34:44.459Z,5.07
2022-11-11T01:37:29.974Z,3.90
2022-11-11T01:40:16.247Z,5.87
2022-11-11T01:43:05.083Z,6.63
2022-11-11T01:46:00.460Z,6.70
2022-11-11T01:49:09.592Z,6.57
2022-11-11T01:52:06.905Z,5.53
2022-11-11T01:54:55.314Z,6.70
2022-11-11T01:57:47.375Z,3.80
2022-11-11T02:00:33.833Z,6.23
2022-11-11T02:03:21.759Z,6.70
2022-11-11T02:06:09.244Z,7.10
2022-11-11T02:08:55.979Z,4.50
2022-11-11T02:12:01.201Z,8.13
2022-11-11T02:14:50.227Z,8.67
2022-11-11T02:17:36.393Z,9.63
2022-11-11T02:20:25.875Z,3.60
2022-11-11T02:23:28.635Z,4.60
2022-11-11T02:26:17.292Z,6.03
2022-11-11T02:29:07.751Z,4.93
2022-11-11T02:31:53.248Z,6.73
2022-11-11T02:34:38.886Z,14.40
2022-11-11T02:37:27.082Z,5.50
2022-11-11T02:40:17.205Z,13.33
2022-11-11T02:43:03.379Z,5.03
2022-11-11T02:45:48.791Z,7.40
2022-11-11T02:48:35.519Z,5.83
2022-11-11T02:51:21.238Z,5.37
2022-11-11T02:54:06.928Z,3.60
2022-11-11T02:57:07.568Z,5.43
2022-11-11T02:59:53.238Z,4.40
2022-11-11T03:02:38.912Z,3.87
2022-11-11T03:05:24.753Z,3.63
2022-11-11T03:08:10.771Z,10.57
2022-11-11T03:10:56.391Z,4.27
2022-11-11T03:13:42.006Z,15.90
2022-11-11T03:16:47.502Z,4.60
2022-11-11T03:19:33.388Z,7.13
2022-11-11T03:22:53.888Z,12.53
2022-11-11T03:25:39.530Z,6.37
2022-11-11T03:28:25.859Z,9.33
2022-11-11T03:31:11.467Z,4.80
2022-11-11T03:34:16.826Z,5.53
2022-11-11T03:37:20.702Z,6.53
2022-11-11T03:40:06.738Z,25.20
2022-11-11T03:42:52.120Z,14.30
2022-11-11T03:45:37.569Z,11.07
2022-11-11T03:48:24.249Z,11.70
2022-11-11T03:51:09.821Z,9.83
2022-11-11T03:53:55.107Z,6.57
2022-11-11T03:56:40.623Z,10.23
2022-11-11T03:59:25.955Z,10.03
2022-11-11T04:02:33.828Z,7.20
2022-11-11T04:05:37.843Z,11.67
2022-11-11T04:08:41.823Z,10.87
2022-11-11T04:11:36.283Z,8.33
2022-11-11T04:14:40.226Z,7.30
2022-11-11T04:17:25.602Z,10.20
2022-11-11T04:20:30.215Z,5.80
2022-11-11T04:23:15.812Z,5.10
2022-11-11T04:26:01.640Z,4.93
2022-11-11T04:29:06.392Z,6.40
2022-11-11T04:32:10.303Z,13.90
2022-11-11T04:34:57.983Z,6.30
2022-11-11T04:37:51.566Z,9.63
2022-11-11T04:40:55.137Z,7.27
2022-11-11T04:43:59.109Z,11.00
2022-11-11T04:46:44.536Z,7.33
2022-11-11T04:49:30.568Z,10.50
2022-11-11T04:52:28.756Z,12.67
2022-11-11T04:55:33.704Z,6.03
2022-11-11T04:58:21.843Z,8.60
2022-11-11T05:01:07.173Z,6.50
2022-11-11T05:03:52.812Z,12.17
2022-11-11T05:06:59.550Z,9.80
2022-11-11T05:09:45.331Z,16.27
2022-11-11T05:12:30.941Z,11.10
2022-11-11T05:15:54.846Z,6.73
2022-11-11T05:18:59.083Z,6.80
2022-11-11T05:21:44.849Z,10.47
2022-11-11T05:24:49.344Z,8.23
2022-11-11T05:27:35.228Z,7.00
2022-11-11T05:30:22.062Z,6.90
2022-11-11T05:33:07.644Z,9.27
2022-11-11T05:35:53.461Z,11.50
2022-11-11T05:38:39.169Z,7.43
2022-11-11T05:41:24.784Z,7.10
2022-11-11T05:44:10.292Z,13.00
2022-11-11T05:46:55.683Z,15.37
2022-11-11T05:49:41.516Z,7.70
2022-11-11T05:52:26.635Z,6.67
2022-11-11T05:55:12.128Z,9.73
2022-11-11T05:57:57.691Z,8.20
2022-11-11T06:00:43.212Z,7.23
2022-11-11T06:03:28.590Z,5.60
2022-11-11T06:06:14.439Z,7.37
2022-11-11T06:09:00.223Z,13.03
2022-11-11T06:11:45.588Z,11.67
2022-11-11T06:14:31.120Z,10.00
2022-11-11T06:17:16.785Z,19.97
2022-11-11T06:20:02.296Z,9.03
2022-11-11T06:22:56.717Z,5.63
2022-11-11T06:26:00.555Z,8.60
2022-11-11T06:28:53.340Z,4.97
2022-11-11T06:31:38.597Z,8.80
2022-11-11T06:34:24.184Z,10.27
2022-11-11T06:37:09.736Z,10.40
2022-11-11T06:39:55.300Z,9.50
2022-11-11T06:42:40.686Z,6.23
2022-11-11T06:45:28.923Z,11.23
2022-11-11T06:48:14.177Z,5.83
2022-11-11T06:51:05.379Z,5.93
2022-11-11T06:53:50.869Z,6.47
2022-11-11T06:56:36.471Z,10.67
2022-11-11T06:59:21.894Z,5.30
2022-11-11T07:02:18.327Z,4.53
2022-11-11T07:05:03.691Z,5.27
2022-11-11T07:07:49.059Z,4.80
2022-11-11T07:10:37.973Z,13.10
2022-11-11T07:13:23.597Z,9.23
2022-11-11T07:16:10.058Z,5.20
2022-11-11T07:18:55.309Z,5.30
2022-11-11T07:21:40.889Z,11.83
2022-11-11T07:24:26.552Z,5.63
2022-11-11T07:27:11.920Z,5.00
2022-11-11T07:29:57.385Z,13.00
2022-11-11T07:32:51.010Z,7.10
2022-11-11T07:35:36.472Z,18.37
2022-11-11T07:38:22.437Z,4.70
2022-11-11T07:41:12.111Z,6.57
2022-11-11T07:43:57.857Z,4.40
2022-11-11T07:46:43.260Z,6.83
2022-11-11T07:49:28.528Z,7.50
2022-11-11T07:52:13.972Z,7.13
2022-11-11T07:54:59.584Z,11.30
2022-11-11T07:57:45.422Z,4.90
2022-11-11T08:00:31.086Z,5.00
2022-11-11T08:03:16.718Z,7.40
2022-11-11T08:06:03.270Z,10.10
2022-11-11T08:08:49.533Z,8.87
2022-11-11T08:11:53.270Z,13.17
2022-11-11T08:14:38.618Z,6.90
2022-11-11T08:17:24.025Z,11.47
2022-11-11T08:20:11.516Z,6.80
2022-11-11T08:23:25.080Z,6.63
2022-11-11T08:26:06.239Z,6.60
2022-11-11T08:28:53.549Z,5.27
2022-11-11T08:31:39.421Z,4.93
2022-11-11T08:34:24.532Z,6.43
2022-11-11T08:37:09.960Z,6.37
2022-11-11T08:39:55.425Z,6.77
2022-11-11T08:42:42.186Z,7.40
2022-11-11T08:45:27.527Z,7.70
2022-11-11T08:48:12.996Z,6.23
2022-11-11T08:50:58.702Z,4.30
2022-11-11T08:53:44.084Z,4.30
2022-11-11T08:56:29.578Z,4.20
2022-11-11T08:59:15.146Z,4.13
2022-11-11T09:02:00.662Z,3.80
2022-11-11T09:04:49.374Z,7.73
2022-11-11T09:07:36.912Z,8.83
2022-11-11T09:10:22.624Z,15.03
2022-11-11T09:13:08.170Z,5.07
2022-11-11T09:15:54.708Z,6.00
2022-11-11T09:18:40.561Z,7.03
2022-11-11T09:21:25.763Z,3.50
2022-11-11T09:24:11.123Z,9.00
2022-11-11T09:26:56.656Z,5.20
2022-11-11T09:29:42.066Z,3.13
2022-11-11T09:32:27.830Z,3.30
2022-11-11T09:35:13.214Z,2.70
2022-11-11T09:38:00.676Z,2.30
2022-11-11T09:41:10.103Z,2.73
2022-11-11T09:44:00.839Z,2.83
2022-11-11T09:47:02.072Z,2.30
2022-11-11T09:50:00.048Z,2.20
2022-11-11T09:52:54.232Z,4.80
2022-11-11T09:55:52.409Z,37.43
2022-11-11T09:58:49.039Z,5.30
2022-11-11T10:01:42.501Z,2.70
2022-11-11T10:04:37.627Z,3.97
2022-11-11T10:07:36.140Z,5.67
2022-11-11T10:10:36.146Z,11.23
2022-11-11T10:13:29.989Z,2.50
2022-11-11T10:16:53.325Z,3.73
2022-11-11T10:20:00.211Z,2.80
2022-11-11T10:22:51.340Z,6.97
2022-11-11T10:25:37.376Z,4.87
2022-11-11T10:28:28.284Z,2.50
2022-11-11T10:31:19.855Z,1.70
2022-11-11T10:34:17.517Z,3.10
2022-11-11T10:37:03.477Z,1.77
2022-11-11T10:40:13.413Z,0.97
2022-11-11T10:42:58.940Z,1.73
2022-11-11T10:45:57.607Z,1.00
2022-11-11T10:48:48.497Z,1.83
2022-11-11T10:51:43.308Z,2.50
2022-11-11T10:54:47.262Z,1.30
2022-11-11T10:57:40.842Z,6.57
2022-11-11T11:00:26.046Z,16.63
2022-11-11T11:03:17.285Z,4.03
2022-11-11T11:06:16.691Z,1.53
2022-11-11T11:09:30.394Z,1.37
2022-11-11T11:12:37.419Z,2.00
2022-11-11T11:15:25.398Z,6.60
2022-11-11T11:18:16.542Z,1.50
2022-11-11T11:21:08.098Z,1.70
2022-11-11T11:23:53.265Z,3.27
2022-11-11T11:26:45.273Z,6.60
2022-11-11T11:29:35.498Z,2.33
2022-11-11T11:32:27.755Z,2.27
2022-11-11T11:35:33.173Z,2.07
2022-11-11T11:38:19.200Z,3.10
2022-11-11T11:41:04.927Z,56.03
2022-11-11T11:43:50.345Z,6.40
2022-11-11T11:46:38.816Z,4.90
2022-11-11T11:50:00.105Z,3.80
2022-11-11T11:52:58.354Z,6.10
2022-11-11T11:55:55.973Z,3.03
2022-11-11T11:59:03.071Z,5.47
2022-11-11T12:01:56.934Z,1.30
2022-11-11T12:05:15.279Z,1.70
2022-11-11T12:08:24.657Z,3.30
2022-11-11T12:11:35.809Z,5.10
2022-11-11T12:14:50.007Z,6.13
2022-11-11T12:17:48.932Z,1.33
2022-11-11T12:20:45.495Z,3.13
2022-11-11T12:23:58.394Z,3.40
2022-11-11T12:26:54.267Z,2.80
2022-11-11T12:30:05.983Z,1.67
2022-11-11T12:33:11.888Z,2.60
2022-11-11T12:36:08.622Z,17.37
2022-11-11T12:39:07.465Z,5.50
2022-11-11T12:42:07.289Z,14.80
2022-11-11T12:45:00.473Z,3.83
2022-11-11T12:47:52.787Z,7.40
2022-11-11T12:50:53.689Z,10.47
2022-11-11T12:54:10.150Z,2.60
2022-11-11T12:57:29.491Z,2.60
2022-11-11T13:00:23.131Z,3.47
2022-11-11T13:03:20.835Z,4.97
2022-11-11T13:06:13.370Z,2.93
2022-11-11T13:08:58.485Z,4.80
2022-11-11T13:12:18.538Z,2.50
2022-11-11T13:15:15.766Z,3.40
2022-11-11T13:18:02.164Z,3.23
2022-11-11T13:21:01.008Z,4.37
2022-11-11T13:23:46.418Z,4.27
2022-11-11T13:26:45.248Z,14.20
2022-11-11T13:30:08.092Z,2.80
2022-11-11T13:33:00.168Z,3.40
2022-11-11T13:35:58.654Z,4.10
2022-11-11T13:38:54.296Z,2.00
2022-11-11T13:41:42.565Z,5.43
2022-11-11T13:44:33.432Z,4.20
2022-11-11T13:47:23.028Z,3.70
2022-11-11T13:50:33.351Z,3.30
2022-11-11T13:53:34.501Z,3.63
2022-11-11T13:56:22.865Z,4.23
2022-11-11T13:59:18.277Z,4.30
2022-11-11T14:02:35.833Z,4.87
2022-11-11T14:05:23.113Z,2.33
2022-11-11T14:08:08.534Z,1.90
2022-11-11T14:10:59.671Z,3.17
2022-11-11T14:13:45.143Z,2.40
2022-11-11T14:16:36.388Z,3.07
2022-11-11T14:19:21.491Z,2.73
2022-11-11T14:22:33.004Z,4.43
2022-11-11T14:25:28.671Z,1.80
2022-11-11T14:28:23.628Z,3.20
2022-11-11T14:31:15.475Z,1.83
2022-11-11T14:34:32.852Z,4.40
2022-11-11T14:37:18.127Z,3.23
2022-11-11T14:40:04.413Z,3.67
2022-11-11T14:42:49.702Z,3.03
2022-11-11T14:45:35.304Z,6.23
2022-11-11T14:48:48.784Z,4.23
2022-11-11T14:51:51.859Z,5.20
2022-11-11T14:54:53.286Z,7.63
2022-11-11T14:57:47.874Z,8.83
2022-11-11T15:00:49.561Z,7.77
2022-11-11T15:03:53.462Z,4.60
2022-11-11T15:06:59.567Z,3.10
2022-11-11T15:10:08.283Z,4.53
2022-11-11T15:13:23.824Z,5.10
2022-11-11T15:16:44.666Z,3.80
2022-11-11T15:19:29.867Z,3.80
2022-11-11T15:22:15.195Z,5.90
2022-11-11T15:25:33.378Z,4.30
2022-11-11T15:28:52.125Z,4.90
2022-11-11T15:31:46.141Z,12.03
2022-11-11T15:34:31.300Z,6.83
2022-11-11T15:37:19.301Z,11.73
2022-11-11T15:40:05.793Z,6.47
2022-11-11T15:42:52.371Z,7.77
2022-11-11T15:45:37.643Z,3.23
2022-11-11T15:48:34.220Z,4.53
2022-11-11T15:51:22.608Z,3.43
2022-11-11T15:54:20.380Z,3.67
2022-11-11T15:57:26.062Z,3.07
2022-11-11T16:00:41.174Z,4.80
2022-11-11T16:03:33.879Z,3.20
2022-11-11T16:06:19.859Z,3.63
2022-11-11T16:09:05.369Z,9.70
2022-11-11T16:11:54.231Z,10.97
2022-11-11T16:14:44.857Z,8.77
2022-11-11T16:17:37.897Z,6.13
2022-11-11T16:20:30.987Z,6.27
2022-11-11T16:23:19.357Z,6.80
2022-11-11T16:26:06.196Z,11.37
2022-11-11T16:28:57.889Z,10.70
2022-11-11T16:31:45.657Z,9.17
2022-11-11T16:34:35.046Z,6.10
2022-11-11T16:37:22.648Z,11.00
2022-11-11T16:40:26.953Z,10.10
2022-11-11T16:43:18.148Z,11.37
2022-11-11T16:46:09.682Z,8.90
2022-11-11T16:48:55.104Z,9.37
2022-11-11T16:51:48.128Z,5.83
2022-11-11T16:54:37.742Z,5.67
2022-11-11T16:57:32.297Z,7.60
2022-11-11T17:00:22.574Z,8.90
2022-11-11T17:03:20.260Z,9.53
2022-11-11T17:06:10.183Z,13.03
2022-11-11T17:08:55.537Z,13.20
2022-11-11T17:11:40.577Z,12.63
2022-11-11T17:14:28.052Z,16.93
2022-11-11T17:17:13.735Z,16.03
2022-11-11T17:20:06.520Z,20.63
2022-11-11T17:22:57.299Z,14.47
2022-11-11T17:25:43.009Z,14.43
2022-11-11T17:28:36.537Z,21.10
2022-11-11T17:31:24.080Z,15.83
2022-11-11T17:34:10.890Z,16.17
2022-11-11T17:36:56.652Z,25.00
2022-11-11T17:39:44.908Z,13.97
2022-11-11T17:42:30.829Z,28.13
2022-11-11T17:45:16.703Z,19.27
2022-11-11T17:48:02.070Z,26.93
2022-11-11T17:50:47.561Z,19.90
2022-11-11T17:53:37.125Z,22.00
2022-11-11T17:56:22.564Z,26.80
2022-11-11T17:59:08.149Z,15.30
2022-11-11T18:01:53.857Z,22.57
2022-11-11T18:04:40.147Z,16.67
2022-11-11T18:07:25.449Z,16.17
2022-11-11T18:10:11.826Z,11.50
2022-11-11T18:12:58.001Z,10.77
2022-11-11T18:15:43.290Z,10.97
2022-11-11T18:18:29.990Z,14.43
2022-11-11T18:21:15.532Z,17.97
2022-11-11T18:24:01.012Z,16.57
2022-11-11T18:26:46.597Z,23.60
2022-11-11T18:29:33.436Z,20.70
2022-11-11T18:32:18.640Z,11.47
2022-11-11T18:35:04.411Z,21.10
2022-11-11T18:37:49.725Z,17.77
2022-11-11T18:40:35.129Z,16.73
2022-11-11T18:43:20.619Z,12.30
2022-11-11T18:46:11.488Z,13.87
2022-11-11T18:48:59.921Z,15.30
2022-11-11T18:51:45.211Z,14.20
2022-11-11T18:54:30.849Z,18.93
2022-11-11T18:57:16.231Z,16.50
2022-11-11T19:00:01.966Z,16.70
2022-11-11T19:02:47.149Z,24.33
2022-11-11T19:05:32.845Z,26.97
2022-11-11T19:08:18.463Z,26.33
2022-11-11T19:11:05.876Z,31.73
2022-11-11T19:13:51.882Z,45.37
2022-11-11T19:16:37.793Z,47.80
2022-11-11T19:19:23.155Z,42.40
2022-11-11T19:22:08.726Z,41.13
2022-11-11T19:24:54.002Z,35.73
2022-11-11T19:27:39.560Z,43.23
2022-11-11T19:30:25.284Z,42.90
2022-11-11T19:33:10.652Z,27.13
2022-11-11T19:36:00.707Z,30.90
2022-11-11T19:38:48.202Z,32.40
2022-11-11T19:41:33.420Z,33.83
2022-11-11T19:44:19.287Z,32.37
2022-11-11T19:47:05.364Z,31.13
2022-11-11T19:49:50.613Z,32.27
2022-11-11T19:52:38.052Z,30.13
2022-11-11T19:55:23.256Z,28.50
2022-11-11T19:58:08.819Z,25.30
2022-11-11T20:00:54.795Z,27.63
2022-11-11T20:03:41.421Z,24.67
2022-11-11T20:06:33.794Z,30.47
2022-11-11T20:09:18.988Z,33.20
2022-11-11T20:12:04.445Z,29.60
2022-11-11T20:14:50.184Z,25.20
2022-11-11T20:17:35.584Z,22.33
2022-11-11T20:20:20.887Z,25.30
2022-11-11T20:23:06.673Z,28.17
2022-11-11T20:25:53.661Z,30.33
2022-11-11T20:28:40.007Z,19.10
2022-11-11T20:31:26.069Z,27.13
2022-11-11T20:34:11.767Z,22.73
2022-11-11T20:36:57.440Z,28.50
2022-11-11T20:39:42.925Z,28.50
2022-11-11T20:42:28.383Z,24.27
2022-11-11T20:45:13.727Z,23.23
2022-11-11T20:47:59.103Z,35.33
2022-11-11T20:50:44.588Z,21.60
2022-11-11T20:53:30.507Z,38.13
2022-11-11T20:56:23.389Z,35.77
2022-11-11T20:59:09.582Z,34.50
2022-11-11T21:01:55.413Z,37.50
2022-11-11T21:04:40.760Z,39.80
2022-11-11T21:07:26.172Z,33.97
2022-11-11T21:10:11.796Z,33.10
2022-11-11T21:12:57.267Z,30.80
2022-11-11T21:15:42.757Z,37.97
2022-11-11T21:18:28.124Z,38.40
2022-11-11T21:21:16.121Z,32.50
2022-11-11T21:24:05.606Z,40.40
2022-11-11T21:26:51.733Z,36.37
2022-11-11T21:29:37.170Z,26.80
2022-11-11T21:32:22.648Z,32.13
2022-11-11T21:35:08.336Z,29.90
2022-11-11T21:37:55.367Z,33.70
2022-11-11T21:40:40.608Z,32.10
2022-11-11T21:43:26.055Z,35.27
2022-11-11T21:46:14.962Z,24.73
2022-11-11T21:49:01.033Z,30.10
2022-11-11T21:51:46.534Z,43.77
2022-11-11T21:54:32.000Z,30.90
2022-11-11T21:57:18.810Z,23.47
2022-11-11T22:00:05.650Z,40.20
2022-11-11T22:02:51.414Z,30.67
2022-11-11T22:05:36.704Z,22.80
2022-11-11T22:08:22.338Z,24.63
2022-11-11T22:11:11.629Z,20.93
2022-11-11T22:13:57.734Z,28.70
2022-11-11T22:16:42.923Z,20.43
2022-11-11T22:19:28.536Z,26.33
2022-11-11T22:22:14.225Z,35.80
2022-11-11T22:24:59.525Z,22.53
2022-11-11T22:27:45.298Z,24.37
2022-11-11T22:30:31.360Z,27.53
2022-11-11T22:33:16.948Z,21.20
2022-11-11T22:36:04.433Z,25.30
2022-11-11T22:38:49.992Z,21.80
2022-11-11T22:41:38.420Z,22.13
2022-11-11T22:44:23.940Z,28.30
2022-11-11T22:47:09.500Z,25.53
2022-11-11T22:49:55.055Z,20.93
2022-11-11T22:52:40.490Z,18.93
2022-11-11T22:55:25.913Z,23.17
2022-11-11T22:58:11.694Z,21.20
2022-11-11T23:01:05.635Z,23.40
2022-11-11T23:03:53.759Z,23.70
2022-11-11T23:06:41.216Z,22.27
2022-11-11T23:09:27.052Z,20.07
2022-11-11T23:12:12.546Z,24.50
2022-11-11T23:14:58.005Z,24.60
2022-11-11T23:17:43.654Z,45.80
2022-11-11T23:20:29.164Z,32.47
2022-11-11T23:23:14.870Z,44.07
2022-11-11T23:26:05.642Z,33.67
2022-11-11T23:28:51.040Z,29.23
2022-11-11T23:31:36.325Z,20.60
2022-11-11T23:34:21.815Z,28.20
2022-11-11T23:37:08.280Z,24.00
2022-11-11T23:39:53.936Z,22.77
2022-11-11T23:42:39.525Z,22.07
2022-11-11T23:45:27.783Z,29.03
2022-11-11T23:48:12.960Z,18.10
2022-11-11T23:50:58.470Z,23.07
2022-11-11T23:53:44.030Z,27.03
2022-11-11T23:56:29.391Z,21.07
2022-11-11T23:59:14.989Z,24.23
